createdAt,value
2022-09-05T00:00:16.415Z,969.88
2022-09-05T00:01:16.379Z,969.92
2022-09-05T00:02:17.364Z,969.89
2022-09-05T00:03:16.486Z,969.84
2022-09-05T00:04:25.119Z,969.82
2022-09-05T00:05:17.366Z,969.88
2022-09-05T00:06:16.288Z,969.80
2022-09-05T00:07:41.280Z,969.81
2022-09-05T00:08:17.299Z,969.80
2022-09-05T00:09:16.282Z,969.81
2022-09-05T00:10:16.278Z,969.80
2022-09-05T00:11:42.826Z,969.77
2022-09-05T00:12:17.238Z,969.80
2022-09-05T00:13:16.244Z,969.74
2022-09-05T00:14:16.252Z,969.76
2022-09-05T00:15:18.908Z,969.82
2022-09-05T00:16:16.216Z,969.73
2022-09-05T00:17:16.165Z,969.76
2022-09-05T00:22:18.555Z,969.74
2022-09-05T00:23:12.111Z,969.73
2022-09-05T00:24:24.864Z,969.73
2022-09-05T00:24:25.693Z,969.74
2022-09-05T00:24:29.062Z,969.75
2022-09-05T00:24:30.905Z,969.76
2022-09-05T00:24:36.684Z,969.74
2022-09-05T00:25:32.950Z,969.70
2022-09-05T00:26:17.111Z,969.75
2022-09-05T00:27:16.059Z,969.74
2022-09-05T00:28:26.635Z,969.69
2022-09-05T00:29:20.429Z,969.72
2022-09-05T00:31:08.222Z,969.70
2022-09-05T00:31:54.489Z,969.73
2022-09-05T00:32:17.107Z,969.72
2022-09-05T00:33:17.193Z,969.73
2022-09-05T00:34:15.970Z,969.71
2022-09-05T00:35:15.978Z,969.74
2022-09-05T00:36:15.977Z,969.75
2022-09-05T00:37:17.028Z,969.73
2022-09-05T00:38:15.970Z,969.79
2022-09-05T00:39:15.919Z,969.76
2022-09-05T00:40:18.401Z,969.78
2022-09-05T00:41:15.924Z,969.79
2022-09-05T00:42:15.919Z,969.78
2022-09-05T00:43:15.905Z,969.80
2022-09-05T00:44:15.914Z,969.80
2022-09-05T00:45:19.451Z,969.79
2022-09-05T00:46:15.958Z,969.78
2022-09-05T00:47:15.864Z,969.77
2022-09-05T00:48:15.826Z,969.79
2022-09-05T00:49:15.832Z,969.77
2022-09-05T00:50:15.790Z,969.76
2022-09-05T00:51:15.787Z,969.79
2022-09-05T00:52:15.794Z,969.78
2022-09-05T00:53:15.804Z,969.78
2022-09-05T00:54:15.856Z,969.77
2022-09-05T00:55:15.738Z,969.78
2022-09-05T00:56:15.722Z,969.79
2022-09-05T00:57:18.155Z,969.77
2022-09-05T00:58:15.704Z,969.78
2022-09-05T00:59:15.730Z,969.79
2022-09-05T01:00:17.933Z,969.73
2022-09-05T01:01:21.004Z,969.78
2022-09-05T01:02:16.842Z,969.78
2022-09-05T01:03:15.857Z,969.76
2022-09-05T01:04:15.640Z,969.75
2022-09-05T01:05:15.635Z,969.72
2022-09-05T01:06:15.639Z,969.72
2022-09-05T01:07:15.652Z,969.75
2022-09-05T01:08:15.588Z,969.75
2022-09-05T01:09:15.607Z,969.75
2022-09-05T01:10:15.578Z,969.77
2022-09-05T01:11:15.587Z,969.76
2022-09-05T01:12:15.584Z,969.77
2022-09-05T01:13:15.530Z,969.78
2022-09-05T01:14:15.531Z,969.76
2022-09-05T01:15:15.545Z,969.73
2022-09-05T01:16:15.580Z,969.71
2022-09-05T01:17:15.494Z,969.76
2022-09-05T01:18:15.478Z,969.71
2022-09-05T01:19:15.920Z,969.75
2022-09-05T01:20:19.498Z,969.74
2022-09-05T01:21:15.454Z,969.70
2022-09-05T01:22:15.446Z,969.73
2022-09-05T01:23:15.471Z,969.72
2022-09-05T01:24:15.405Z,969.72
2022-09-05T01:25:15.399Z,969.70
2022-09-05T01:26:15.412Z,969.67
2022-09-05T01:27:15.379Z,969.70
2022-09-05T01:29:16.293Z,969.70
2022-09-05T01:29:19.559Z,969.71
2022-09-05T01:30:15.336Z,969.68
2022-09-05T01:31:15.417Z,969.73
2022-09-05T01:32:15.331Z,969.77
2022-09-05T01:33:15.319Z,969.76
2022-09-05T01:34:15.292Z,969.80
2022-09-05T01:35:15.285Z,969.75
2022-09-05T01:36:15.270Z,969.79
2022-09-05T01:37:33.711Z,969.79
2022-09-05T01:38:16.273Z,969.80
2022-09-05T01:39:39.292Z,969.75
2022-09-05T01:40:17.037Z,969.80
2022-09-05T01:41:18.599Z,969.84
2022-09-05T01:42:15.249Z,969.86
2022-09-05T01:43:15.194Z,969.85
2022-09-05T01:44:15.188Z,969.88
2022-09-05T01:45:15.170Z,969.88
2022-09-05T01:46:15.235Z,969.82
2022-09-05T01:47:15.165Z,969.88
2022-09-05T01:48:16.179Z,969.81
2022-09-05T01:49:15.132Z,969.85
2022-09-05T01:50:15.167Z,969.82
2022-09-05T01:51:28.877Z,969.83
2022-09-05T01:52:16.100Z,969.83
2022-09-05T01:53:15.079Z,969.84
2022-09-05T01:54:23.750Z,969.78
2022-09-05T01:55:16.085Z,969.86
2022-09-05T01:56:15.067Z,969.83
2022-09-05T01:57:16.110Z,969.81
2022-09-05T01:58:15.019Z,969.82
2022-09-05T01:59:15.028Z,969.81
2022-09-05T02:00:15.005Z,969.90
2022-09-05T02:01:30.136Z,969.91
2022-09-05T02:02:16.192Z,969.89
2022-09-05T02:03:15.006Z,969.89
2022-09-05T02:04:14.954Z,969.92
2022-09-05T02:05:14.936Z,969.89
2022-09-05T02:06:14.943Z,969.90
2022-09-05T02:07:19.436Z,969.91
2022-09-05T02:08:15.969Z,969.92
2022-09-05T02:09:14.889Z,969.92
2022-09-05T02:10:14.881Z,969.94
2022-09-05T02:11:14.875Z,969.91
2022-09-05T02:12:14.909Z,969.92
2022-09-05T02:13:14.886Z,969.92
2022-09-05T02:14:14.834Z,969.89
2022-09-05T02:15:15.825Z,969.88
2022-09-05T02:16:14.959Z,969.92
2022-09-05T02:17:23.374Z,969.91
2022-09-05T02:18:15.786Z,969.93
2022-09-05T02:19:14.825Z,969.91
2022-09-05T02:20:14.765Z,969.98
2022-09-05T02:21:15.788Z,969.90
2022-09-05T02:22:14.752Z,969.96
2022-09-05T02:23:38.927Z,969.93
2022-09-05T02:24:15.771Z,969.94
2022-09-05T02:26:01.268Z,969.93
2022-09-05T02:26:15.696Z,969.90
2022-09-05T02:27:31.855Z,969.90
2022-09-05T02:28:15.697Z,969.83
2022-09-05T02:29:28.935Z,969.85
2022-09-05T02:30:15.719Z,969.84
2022-09-05T02:31:20.205Z,969.86
2022-09-05T02:32:15.673Z,969.91
2022-09-05T02:33:14.620Z,969.91
2022-09-05T02:34:14.625Z,969.86
2022-09-05T02:35:14.617Z,969.85
2022-09-05T02:36:14.635Z,969.86
2022-09-05T02:37:14.575Z,969.84
2022-09-05T02:40:59.863Z,969.87
2022-09-05T02:45:03.804Z,969.87
2022-09-05T02:45:06.239Z,969.87
2022-09-05T02:45:11.421Z,969.82
2022-09-05T02:45:15.180Z,969.82
2022-09-05T02:45:18.590Z,969.82
2022-09-05T02:45:21.085Z,969.84
2022-09-05T02:45:25.812Z,969.80
2022-09-05T02:46:15.519Z,969.80
2022-09-05T02:47:14.464Z,969.81
2022-09-05T02:48:15.725Z,969.79
2022-09-05T02:52:38.098Z,969.84
2022-09-05T02:52:42.427Z,969.80
2022-09-05T02:57:25.826Z,969.74
2022-09-05T02:57:29.160Z,969.78
2022-09-05T02:57:29.659Z,969.77
2022-09-05T02:57:35.416Z,969.83
2022-09-05T02:57:39.467Z,969.84
2022-09-05T02:57:42.313Z,969.80
2022-09-05T02:57:46.493Z,969.76
2022-09-05T02:58:15.907Z,969.79
2022-09-05T02:59:14.479Z,969.76
2022-09-05T03:00:14.318Z,969.84
2022-09-05T03:01:14.403Z,969.83
2022-09-05T03:02:25.249Z,969.83
2022-09-05T03:03:15.500Z,969.80
2022-09-05T03:04:14.284Z,969.86
2022-09-05T03:05:14.268Z,969.82
2022-09-05T03:06:14.256Z,969.84
2022-09-05T03:07:14.240Z,969.84
2022-09-05T03:08:14.269Z,969.87
2022-09-05T03:09:16.945Z,969.89
2022-09-05T03:10:14.219Z,969.89
2022-09-05T03:11:14.194Z,969.93
2022-09-05T03:12:29.450Z,969.96
2022-09-05T03:13:15.224Z,969.97
2022-09-05T03:14:14.208Z,969.94
2022-09-05T03:15:18.813Z,969.89
2022-09-05T03:16:15.213Z,969.90
2022-09-05T03:17:14.126Z,969.90
2022-09-05T03:18:31.422Z,969.91
2022-09-05T03:19:15.130Z,969.86
2022-09-05T03:20:14.130Z,969.90
2022-09-05T03:21:14.120Z,969.86
2022-09-05T03:22:14.075Z,969.88
2022-09-05T03:23:21.984Z,969.97
2022-09-05T03:24:14.052Z,969.93
2022-09-05T03:25:14.083Z,969.96
2022-09-05T03:26:14.056Z,969.97
2022-09-05T03:27:14.016Z,969.97
2022-09-05T03:28:14.043Z,970.04
2022-09-05T03:29:14.005Z,969.99
2022-09-05T03:30:13.992Z,969.95
2022-09-05T03:31:20.563Z,969.96
2022-09-05T03:32:14.960Z,969.99
2022-09-05T03:33:14.001Z,969.93
2022-09-05T03:34:13.938Z,969.89
2022-09-05T03:35:13.926Z,969.90
2022-09-05T03:36:13.932Z,969.91
2022-09-05T03:37:13.934Z,969.96
2022-09-05T03:38:13.944Z,969.92
2022-09-05T03:39:13.935Z,969.94
2022-09-05T03:40:15.211Z,969.90
2022-09-05T03:41:13.859Z,969.87
2022-09-05T03:42:14.622Z,969.87
2022-09-05T03:43:13.864Z,969.84
2022-09-05T03:44:13.881Z,969.89
2022-09-05T03:45:13.817Z,969.83
2022-09-05T03:46:13.941Z,969.93
2022-09-05T03:47:13.820Z,969.91
2022-09-05T03:48:23.075Z,969.91
2022-09-05T03:49:17.612Z,969.97
2022-09-05T03:55:12.142Z,969.95
2022-09-05T03:57:04.529Z,969.92
2022-09-05T03:57:10.353Z,969.97
2022-09-05T03:57:14.288Z,969.90
2022-09-05T03:57:14.440Z,969.93
2022-09-05T03:57:16.382Z,969.95
2022-09-05T03:57:25.337Z,969.89
2022-09-05T03:57:32.277Z,969.95
2022-09-05T03:58:16.950Z,969.90
2022-09-05T03:59:13.700Z,969.92
2022-09-05T04:00:13.651Z,969.96
2022-09-05T04:03:20.248Z,969.93
2022-09-05T04:06:58.312Z,969.92
2022-09-05T04:08:06.417Z,969.97
2022-09-05T04:08:08.423Z,969.95
2022-09-05T04:08:18.448Z,969.92
2022-09-05T04:08:19.030Z,969.93
2022-09-05T04:08:31.416Z,969.97
2022-09-05T04:08:34.236Z,969.94
2022-09-05T04:09:22.720Z,969.93
2022-09-05T04:10:14.726Z,969.94
2022-09-05T04:11:13.560Z,969.89
2022-09-05T04:12:13.553Z,969.91
2022-09-05T04:13:13.501Z,969.91
2022-09-05T04:14:13.526Z,969.85
2022-09-05T04:15:13.481Z,969.87
2022-09-05T04:16:13.556Z,969.90
2022-09-05T04:17:13.486Z,969.86
2022-09-05T04:18:13.487Z,969.84
2022-09-05T04:19:13.464Z,969.86
2022-09-05T04:20:13.438Z,969.87
2022-09-05T04:21:13.420Z,969.83
2022-09-05T04:22:13.422Z,969.84
2022-09-05T04:23:13.391Z,969.87
2022-09-05T04:24:13.399Z,969.88
2022-09-05T04:25:13.446Z,969.85
2022-09-05T04:26:13.385Z,969.87
2022-09-05T04:27:13.359Z,969.87
2022-09-05T04:28:13.354Z,969.89
2022-09-05T04:29:13.327Z,969.88
2022-09-05T04:30:38.634Z,969.90
2022-09-05T04:31:14.333Z,969.94
2022-09-05T04:32:19.040Z,969.93
2022-09-05T04:33:14.323Z,969.90
2022-09-05T04:34:13.291Z,969.97
2022-09-05T04:35:13.266Z,969.89
2022-09-05T04:36:18.210Z,969.91
2022-09-05T04:37:14.249Z,969.93
2022-09-05T04:38:13.230Z,969.91
2022-09-05T04:39:13.225Z,969.90
2022-09-05T04:40:13.246Z,969.90
2022-09-05T04:41:13.242Z,969.89
2022-09-05T04:42:13.223Z,969.96
2022-09-05T04:43:13.166Z,969.95
2022-09-05T04:44:13.169Z,969.94
2022-09-05T04:45:13.151Z,969.99
2022-09-05T04:46:18.277Z,970.02
2022-09-05T04:47:15.591Z,970.01
2022-09-05T04:48:13.119Z,970.02
2022-09-05T04:49:13.104Z,970.07
2022-09-05T04:50:13.098Z,970.05
2022-09-05T04:51:13.296Z,970.11
2022-09-05T04:52:13.810Z,970.13
2022-09-05T04:53:14.058Z,970.13
2022-09-05T04:54:13.067Z,970.10
2022-09-05T04:55:13.064Z,970.10
2022-09-05T04:56:13.035Z,970.13
2022-09-05T04:57:14.542Z,970.12
2022-09-05T04:58:13.014Z,970.09
2022-09-05T05:03:18.629Z,970.06
2022-09-05T05:05:42.102Z,970.10
2022-09-05T05:06:02.110Z,970.18
2022-09-05T05:06:05.740Z,970.15
2022-09-05T05:06:08.909Z,970.19
2022-09-05T05:06:12.748Z,970.22
2022-09-05T05:06:16.673Z,970.16
2022-09-05T05:06:44.054Z,970.23
2022-09-05T05:07:14.030Z,970.21
2022-09-05T05:08:13.047Z,970.22
2022-09-05T05:09:12.881Z,970.23
2022-09-05T05:10:57.403Z,970.22
2022-09-05T05:17:25.336Z,970.23
2022-09-05T05:17:53.699Z,970.21
2022-09-05T05:18:03.289Z,970.22
2022-09-05T05:18:08.807Z,970.32
2022-09-05T05:18:10.385Z,970.26
2022-09-05T05:18:12.650Z,970.27
2022-09-05T05:18:14.682Z,970.26
2022-09-05T05:18:40.987Z,970.25
2022-09-05T05:19:18.753Z,970.29
2022-09-05T05:20:43.056Z,970.28
2022-09-05T05:21:13.756Z,970.33
2022-09-05T05:22:12.739Z,970.34
2022-09-05T05:23:12.746Z,970.38
2022-09-05T05:24:12.738Z,970.40
2022-09-05T05:25:12.724Z,970.42
2022-09-05T05:26:12.698Z,970.46
2022-09-05T05:27:12.745Z,970.44
2022-09-05T05:28:22.579Z,970.46
2022-09-05T05:29:18.834Z,970.47
2022-09-05T05:30:13.680Z,970.42
2022-09-05T05:31:12.684Z,970.43
2022-09-05T05:32:12.644Z,970.44
2022-09-05T05:33:13.638Z,970.43
2022-09-05T05:34:24.562Z,970.39
2022-09-05T05:35:13.616Z,970.46
2022-09-05T05:36:12.572Z,970.45
2022-09-05T05:37:12.691Z,970.45
2022-09-05T05:38:12.548Z,970.46
2022-09-05T05:39:12.552Z,970.46
2022-09-05T05:40:12.664Z,970.46
2022-09-05T05:41:12.539Z,970.45
2022-09-05T05:42:20.980Z,970.48
2022-09-05T05:43:13.500Z,970.49
2022-09-05T05:44:12.482Z,970.43
2022-09-05T05:45:12.475Z,970.41
2022-09-05T05:46:12.558Z,970.41
2022-09-05T05:47:12.479Z,970.40
2022-09-05T05:48:12.481Z,970.40
2022-09-05T05:49:12.441Z,970.43
2022-09-05T05:50:12.422Z,970.44
2022-09-05T05:51:12.429Z,970.45
2022-09-05T05:52:12.415Z,970.45
2022-09-05T05:53:12.382Z,970.45
2022-09-05T05:54:13.370Z,970.49
2022-09-05T05:55:50.600Z,970.46
2022-09-05T05:56:13.363Z,970.45
2022-09-05T05:57:14.982Z,970.47
2022-09-05T05:58:12.358Z,970.47
2022-09-05T05:59:12.317Z,970.48
2022-09-05T06:00:13.440Z,970.50
2022-09-05T06:01:23.085Z,970.53
2022-09-05T06:02:13.399Z,970.56
2022-09-05T06:03:26.226Z,970.58
2022-09-05T06:04:13.270Z,970.63
2022-09-05T06:05:12.287Z,970.56
2022-09-05T06:06:12.236Z,970.59
2022-09-05T06:07:12.236Z,970.57
2022-09-05T06:12:06.968Z,970.55
2022-09-05T06:12:38.765Z,970.62
2022-09-05T06:14:48.507Z,970.58
2022-09-05T06:15:02.059Z,970.56
2022-09-05T06:15:04.035Z,970.57
2022-09-05T06:15:06.176Z,970.64
2022-09-05T06:15:06.828Z,970.60
2022-09-05T06:15:17.738Z,970.56
2022-09-05T06:16:13.205Z,970.56
2022-09-05T06:17:12.126Z,970.59
2022-09-05T06:18:12.105Z,970.58
2022-09-05T06:19:12.089Z,970.59
2022-09-05T06:22:07.008Z,970.63
2022-09-05T06:22:09.314Z,970.61
2022-09-05T06:22:16.844Z,970.62
2022-09-05T06:23:32.105Z,970.61
2022-09-05T06:24:13.042Z,970.66
2022-09-05T06:25:17.034Z,970.65
2022-09-05T06:26:13.028Z,970.66
2022-09-05T06:27:12.047Z,970.62
2022-09-05T06:28:18.396Z,970.66
2022-09-05T06:29:13.001Z,970.64
2022-09-05T06:30:12.017Z,970.63
2022-09-05T06:31:30.440Z,970.63
2022-09-05T06:32:13.565Z,970.61
2022-09-05T06:33:11.933Z,970.65
2022-09-05T06:34:27.260Z,970.59
2022-09-05T06:35:12.914Z,970.59
2022-09-05T06:36:11.919Z,970.60
2022-09-05T06:37:11.905Z,970.64
2022-09-05T06:38:11.911Z,970.60
2022-09-05T06:39:11.981Z,970.68
2022-09-05T06:40:12.002Z,970.64
2022-09-05T06:41:11.876Z,970.65
2022-09-05T06:42:15.077Z,970.61
2022-09-05T06:43:12.831Z,970.60
2022-09-05T06:44:11.851Z,970.52
2022-09-05T06:45:27.466Z,970.58
2022-09-05T06:46:12.824Z,970.57
2022-09-05T06:47:24.427Z,970.54
2022-09-05T06:48:13.621Z,970.55
2022-09-05T06:49:30.116Z,970.58
2022-09-05T06:50:27.209Z,970.58
2022-09-05T06:51:12.775Z,970.60
2022-09-05T06:52:16.567Z,970.54
2022-09-05T06:53:19.544Z,970.55
2022-09-05T06:54:12.702Z,970.58
2022-09-05T06:55:11.683Z,970.58
2022-09-05T06:56:11.686Z,970.57
2022-09-05T06:57:11.722Z,970.59
2022-09-05T06:58:11.694Z,970.62
2022-09-05T06:59:11.648Z,970.63
2022-09-05T07:00:19.587Z,970.61
2022-09-05T07:01:12.818Z,970.68
2022-09-05T07:02:11.746Z,970.64
2022-09-05T07:03:13.482Z,970.62
2022-09-05T07:04:33.234Z,970.64
2022-09-05T07:05:36.971Z,970.63
2022-09-05T07:06:19.835Z,970.60
2022-09-05T07:07:12.569Z,970.54
2022-09-05T07:08:33.462Z,970.55
2022-09-05T07:09:12.536Z,970.57
2022-09-05T07:10:35.024Z,970.54
2022-09-05T07:11:16.728Z,970.57
2022-09-05T07:12:11.487Z,970.53
2022-09-05T07:13:11.503Z,970.57
2022-09-05T07:14:11.482Z,970.62
2022-09-05T07:15:11.460Z,970.61
2022-09-05T07:16:11.590Z,970.58
2022-09-05T07:17:11.466Z,970.59
2022-09-05T07:18:11.432Z,970.60
2022-09-05T07:19:11.430Z,970.62
2022-09-05T07:20:11.432Z,970.60
2022-09-05T07:21:17.336Z,970.60
2022-09-05T07:22:46.040Z,970.66
2022-09-05T07:23:47.676Z,970.60
2022-09-05T07:24:12.944Z,970.67
2022-09-05T07:25:11.377Z,970.67
2022-09-05T07:26:29.320Z,970.66
2022-09-05T07:27:12.697Z,970.69
2022-09-05T07:28:28.555Z,970.66
2022-09-05T07:29:12.300Z,970.73
2022-09-05T07:30:11.301Z,970.66
2022-09-05T07:31:11.384Z,970.71
2022-09-05T07:32:11.339Z,970.69
2022-09-05T07:33:11.258Z,970.71
2022-09-05T07:34:21.119Z,970.69
2022-09-05T07:35:12.274Z,970.66
2022-09-05T07:36:11.242Z,970.67
2022-09-05T07:37:15.442Z,970.68
2022-09-05T07:38:11.202Z,970.68
2022-09-05T07:39:28.343Z,970.69
2022-09-05T07:40:26.316Z,970.66
2022-09-05T07:41:12.193Z,970.66
2022-09-05T07:42:11.170Z,970.76
2022-09-05T07:43:11.141Z,970.73
2022-09-05T07:44:11.148Z,970.75
2022-09-05T07:45:11.139Z,970.75
2022-09-05T07:46:11.260Z,970.73
2022-09-05T07:47:11.121Z,970.74
2022-09-05T07:48:11.131Z,970.80
2022-09-05T07:49:11.075Z,970.77
2022-09-05T07:51:36.097Z,970.71
2022-09-05T07:56:46.587Z,970.73
2022-09-05T07:56:54.607Z,970.70
2022-09-05T07:56:54.862Z,970.74
2022-09-05T07:56:58.769Z,970.71
2022-09-05T07:56:58.769Z,970.66
2022-09-05T07:57:07.930Z,970.72
2022-09-05T07:57:27.192Z,970.72
2022-09-05T07:58:12.011Z,970.72
2022-09-05T07:59:10.984Z,970.72
2022-09-05T08:00:26.637Z,970.72
2022-09-05T08:01:12.043Z,970.78
2022-09-05T08:02:10.930Z,970.74
2022-09-05T08:03:10.915Z,970.77
2022-09-05T08:04:10.922Z,970.75
2022-09-05T08:05:10.975Z,970.79
2022-09-05T08:06:10.899Z,970.83
2022-09-05T08:07:45.716Z,970.80
2022-09-05T08:08:11.875Z,970.79
2022-09-05T08:10:05.210Z,970.84
2022-09-05T08:10:15.865Z,970.83
2022-09-05T08:11:22.842Z,970.82
2022-09-05T08:12:11.855Z,970.86
2022-09-05T08:13:23.574Z,970.83
2022-09-05T08:14:40.571Z,970.83
2022-09-05T08:15:14.166Z,970.85
2022-09-05T08:16:13.640Z,970.81
2022-09-05T08:17:10.758Z,970.80
2022-09-05T08:18:10.768Z,970.84
2022-09-05T08:19:10.771Z,970.78
2022-09-05T08:20:10.725Z,970.79
2022-09-05T08:21:10.712Z,970.74
2022-09-05T08:22:10.719Z,970.67
2022-09-05T08:23:10.701Z,970.70
2022-09-05T08:24:13.184Z,970.65
2022-09-05T08:25:10.754Z,970.71
2022-09-05T08:26:10.662Z,970.65
2022-09-05T08:27:16.112Z,970.68
2022-09-05T08:28:11.643Z,970.65
2022-09-05T08:29:10.641Z,970.64
2022-09-05T08:30:26.652Z,970.72
2022-09-05T08:31:11.704Z,970.64
2022-09-05T08:32:10.591Z,970.67
2022-09-05T08:33:11.920Z,970.62
2022-09-05T08:34:10.569Z,970.61
2022-09-05T08:35:10.563Z,970.66
2022-09-05T08:36:10.543Z,970.67
2022-09-05T08:37:10.547Z,970.65
2022-09-05T08:38:10.598Z,970.64
2022-09-05T08:39:10.555Z,970.64
2022-09-05T08:40:12.079Z,970.62
2022-09-05T08:41:10.511Z,970.63
2022-09-05T08:42:10.477Z,970.64
2022-09-05T08:46:36.584Z,970.63
2022-09-05T08:46:37.993Z,970.61
2022-09-05T08:46:40.699Z,970.61
2022-09-05T08:46:40.699Z,970.61
2022-09-05T08:47:11.500Z,970.56
2022-09-05T08:48:10.409Z,970.56
2022-09-05T08:49:12.399Z,970.57
2022-09-05T08:50:11.400Z,970.57
2022-09-05T08:51:10.383Z,970.53
2022-09-05T08:52:10.374Z,970.54
2022-09-05T08:53:26.830Z,970.51
2022-09-05T08:54:11.605Z,970.54
2022-09-05T08:55:10.358Z,970.50
2022-09-05T08:56:10.317Z,970.51
2022-09-05T08:57:10.319Z,970.54
2022-09-05T08:58:10.317Z,970.54
2022-09-05T08:59:31.601Z,970.46
2022-09-05T09:00:18.528Z,970.48
2022-09-05T09:01:11.845Z,970.52
2022-09-05T09:02:46.673Z,970.50
2022-09-05T09:03:11.311Z,970.48
2022-09-05T09:04:11.519Z,970.47
2022-09-05T09:05:14.686Z,970.51
2022-09-05T09:06:13.760Z,970.52
2022-09-05T09:07:47.264Z,970.53
2022-09-05T09:08:11.204Z,970.51
2022-09-05T09:09:10.195Z,970.51
2022-09-05T09:10:10.160Z,970.51
2022-09-05T09:11:10.173Z,970.53
2022-09-05T09:12:10.152Z,970.47
2022-09-05T09:13:10.161Z,970.50
2022-09-05T09:14:10.135Z,970.44
2022-09-05T09:15:10.125Z,970.44
2022-09-05T09:16:10.153Z,970.44
2022-09-05T09:17:10.095Z,970.43
2022-09-05T09:18:10.363Z,970.40
2022-09-05T09:19:10.066Z,970.38
2022-09-05T09:20:10.068Z,970.44
2022-09-05T09:21:10.043Z,970.37
2022-09-05T09:22:10.048Z,970.39
2022-09-05T09:23:30.452Z,970.40
2022-09-05T09:24:11.011Z,970.37
2022-09-05T09:25:14.436Z,970.38
2022-09-05T09:26:10.994Z,970.35
2022-09-05T09:27:09.974Z,970.37
2022-09-05T09:28:49.645Z,970.30
2022-09-05T09:29:10.953Z,970.33
2022-09-05T09:30:09.936Z,970.36
2022-09-05T09:31:10.001Z,970.35
2022-09-05T09:32:09.910Z,970.29
2022-09-05T09:33:09.899Z,970.31
2022-09-05T09:34:09.920Z,970.35
2022-09-05T09:35:09.908Z,970.31
2022-09-05T09:36:09.878Z,970.33
2022-09-05T09:37:09.886Z,970.29
2022-09-05T09:38:09.848Z,970.27
2022-09-05T09:39:25.992Z,970.25
2022-09-05T09:40:10.928Z,970.29
2022-09-05T09:41:09.869Z,970.31
2022-09-05T09:42:09.818Z,970.29
2022-09-05T09:43:10.813Z,970.32
2022-09-05T09:44:09.786Z,970.27
2022-09-05T09:45:22.979Z,970.27
2022-09-05T09:46:10.820Z,970.32
2022-09-05T09:47:09.749Z,970.25
2022-09-05T09:48:09.759Z,970.25
2022-09-05T09:49:22.757Z,970.29
2022-09-05T09:50:10.722Z,970.26
2022-09-05T09:51:09.710Z,970.26
2022-09-05T09:52:20.629Z,970.31
2022-09-05T09:53:10.702Z,970.24
2022-09-05T09:54:09.706Z,970.30
2022-09-05T09:55:09.660Z,970.28
2022-09-05T09:56:10.664Z,970.28
2022-09-05T09:57:09.647Z,970.31
2022-09-05T09:58:09.623Z,970.27
2022-09-05T09:59:09.615Z,970.24
2022-09-05T10:00:09.626Z,970.29
2022-09-05T10:01:35.366Z,970.31
2022-09-05T10:03:02.180Z,970.32
2022-09-05T10:09:50.553Z,970.28
2022-09-05T10:09:52.530Z,970.27
2022-09-05T10:10:36.342Z,970.24
2022-09-05T10:10:38.624Z,970.21
2022-09-05T10:10:44.036Z,970.26
2022-09-05T10:10:50.601Z,970.23
2022-09-05T10:10:50.761Z,970.27
2022-09-05T10:10:53.340Z,970.20
2022-09-05T10:12:10.566Z,970.18
2022-09-05T10:13:09.462Z,970.14
2022-09-05T10:14:09.736Z,970.15
2022-09-05T10:15:30.491Z,970.24
2022-09-05T10:16:10.531Z,970.25
2022-09-05T10:17:09.476Z,970.23
2022-09-05T10:18:09.425Z,970.19
2022-09-05T10:19:09.399Z,970.26
2022-09-05T10:20:11.194Z,970.22
2022-09-05T10:21:16.152Z,970.20
2022-09-05T10:23:10.350Z,970.17
2022-09-05T10:24:09.382Z,970.24
2022-09-05T10:25:16.506Z,970.26
2022-09-05T10:26:10.316Z,970.18
2022-09-05T10:27:09.360Z,970.17
2022-09-05T10:28:09.304Z,970.19
2022-09-05T10:29:36.804Z,970.23
2022-09-05T10:30:10.377Z,970.21
2022-09-05T10:32:34.699Z,970.19
2022-09-05T10:35:02.828Z,970.20
2022-09-05T10:35:17.074Z,970.19
2022-09-05T10:35:21.132Z,970.11
2022-09-05T10:35:22.834Z,970.14
2022-09-05T10:36:13.977Z,970.08
2022-09-05T10:37:10.201Z,970.02
2022-09-05T10:38:10.613Z,970.04
2022-09-05T10:39:13.540Z,970.05
2022-09-05T10:40:09.227Z,970.00
2022-09-05T10:41:22.587Z,969.99
2022-09-05T10:42:10.167Z,969.98
2022-09-05T10:43:09.158Z,970.02
2022-09-05T10:44:09.123Z,970.02
2022-09-05T10:45:09.094Z,969.98
2022-09-05T10:46:09.227Z,970.03
2022-09-05T10:47:09.198Z,969.99
2022-09-05T10:48:13.029Z,970.06
2022-09-05T10:49:09.068Z,970.04
2022-09-05T10:50:09.145Z,970.04
2022-09-05T10:51:09.057Z,970.01
2022-09-05T10:52:18.655Z,970.00
2022-09-05T10:53:10.005Z,969.98
2022-09-05T10:54:09.022Z,969.90
2022-09-05T10:55:15.235Z,969.88
2022-09-05T10:56:10.018Z,969.91
2022-09-05T10:57:08.962Z,969.93
2022-09-05T10:58:09.002Z,969.85
2022-09-05T11:02:16.277Z,969.87
2022-09-05T11:02:20.877Z,969.86
2022-09-05T11:02:26.378Z,969.86
2022-09-05T11:02:29.554Z,969.83
2022-09-05T11:03:33.644Z,969.85
2022-09-05T11:04:10.000Z,969.83
2022-09-05T11:05:08.916Z,969.86
2022-09-05T11:06:09.619Z,969.82
2022-09-05T11:07:08.866Z,969.79
2022-09-05T11:08:08.851Z,969.84
2022-09-05T11:09:11.282Z,969.87
2022-09-05T11:10:09.967Z,969.81
2022-09-05T11:11:08.832Z,969.84
2022-09-05T11:12:09.794Z,969.80
2022-09-05T11:13:08.804Z,969.79
2022-09-05T11:14:08.778Z,969.79
2022-09-05T11:15:09.782Z,969.77
2022-09-05T11:16:12.730Z,969.73
2022-09-05T11:17:08.740Z,969.74
2022-09-05T11:18:08.742Z,969.77
2022-09-05T11:19:08.719Z,969.70
2022-09-05T11:20:20.770Z,969.73
2022-09-05T11:21:09.737Z,969.74
2022-09-05T11:22:22.904Z,969.71
2022-09-05T11:23:09.669Z,969.71
2022-09-05T11:24:08.686Z,969.72
2022-09-05T11:25:08.685Z,969.72
2022-09-05T11:26:08.664Z,969.71
2022-09-05T11:27:24.948Z,969.73
2022-09-05T11:28:09.626Z,969.71
2022-09-05T11:29:08.650Z,969.74
2022-09-05T11:30:08.624Z,969.74
2022-09-05T11:31:08.675Z,969.72
2022-09-05T11:32:30.349Z,969.66
2022-09-05T11:39:50.834Z,969.62
2022-09-05T11:39:52.067Z,969.60
2022-09-05T11:39:52.354Z,969.70
2022-09-05T11:39:57.302Z,969.63
2022-09-05T11:39:57.826Z,969.60
2022-09-05T11:40:00.370Z,969.63
2022-09-05T11:40:09.798Z,969.57
2022-09-05T11:40:28.270Z,969.55
2022-09-05T11:41:12.922Z,969.53
2022-09-05T11:42:08.517Z,969.52
2022-09-05T11:43:08.451Z,969.56
2022-09-05T11:44:08.473Z,969.58
2022-09-05T11:45:09.448Z,969.56
2022-09-05T11:46:08.501Z,969.56
2022-09-05T11:47:27.916Z,969.55
2022-09-05T11:48:09.423Z,969.57
2022-09-05T11:49:08.419Z,969.54
2022-09-05T11:50:09.378Z,969.52
2022-09-05T11:51:08.372Z,969.53
2022-09-05T11:52:08.366Z,969.51
2022-09-05T11:53:08.342Z,969.49
2022-09-05T11:54:08.328Z,969.54
2022-09-05T11:55:08.334Z,969.52
2022-09-05T11:56:09.354Z,969.50
2022-09-05T11:57:32.573Z,969.52
2022-09-05T11:58:43.255Z,969.51
2022-09-05T11:59:09.275Z,969.53
2022-09-05T12:00:31.964Z,969.54
2022-09-05T12:01:41.788Z,969.56
2022-09-05T12:02:23.311Z,969.51
2022-09-05T12:03:09.224Z,969.48
2022-09-05T12:04:09.845Z,969.56
2022-09-05T12:05:50.089Z,969.49
2022-09-05T12:06:09.716Z,969.49
2022-09-05T12:07:26.237Z,969.46
2022-09-05T12:08:09.294Z,969.43
2022-09-05T12:09:08.186Z,969.46
2022-09-05T12:10:08.151Z,969.43
2022-09-05T12:11:08.143Z,969.43
2022-09-05T12:12:18.695Z,969.40
2022-09-05T12:13:09.123Z,969.43
2022-09-05T12:14:21.304Z,969.39
2022-09-05T12:15:09.112Z,969.40
2022-09-05T12:16:10.334Z,969.37
2022-09-05T12:17:10.263Z,969.37
2022-09-05T12:18:18.853Z,969.38
2022-09-05T12:19:18.929Z,969.34
2022-09-05T12:20:17.155Z,969.31
2022-09-05T12:21:17.496Z,969.32
2022-09-05T12:22:16.204Z,969.31
2022-09-05T12:23:19.563Z,969.27
2022-09-05T12:24:48.158Z,969.28
2022-09-05T12:25:25.711Z,969.24
2022-09-05T12:27:39.511Z,969.26
2022-09-05T12:27:44.878Z,969.24
2022-09-05T12:29:25.996Z,969.24
2022-09-05T12:29:32.841Z,969.26
2022-09-05T12:30:08.948Z,969.27